KYKN/YKN METAR and TAF weather

Enter ICAO airport designator
Station Type Date Time Source
KYKN METAR 2021/04/13 22:56 UTC NOAA

KYKN 132256Z AUTO 30021G27KT 10SM OVC055 07/M07 A3017 RMK AO2 PK WND 29030/2225 SLP238 T00671067


Station Type Date Time Source
KYKN Decoded METAR 2021/04/13 22:56 UTC NOAA

Yankton, Chan Gurney Municipal Airport, SD, United States (KYKN) 42-55N 097-23W
Apr 13, 2021 - 06:56 PM EDT / 2021.04.13 2256 UTC
Wind: from the WNW (300 degrees) at 24 MPH (21 KT) gusting to 31 MPH (27 KT):0
Visibility: 10 mile(s):0
Sky conditions: overcast
Temperature: 44.1 F (6.7 C)
Dew Point: 19.9 F (-6.7 C)
Relative Humidity: 37%
Pressure (altimeter): 30.17 in. Hg (1021 hPa)
ob: KYKN 132256Z AUTO 30021G27KT 10SM OVC055 07/M07 A3017 RMK AO2 PK WND 29030/2225 SLP238 T00671067
cycle: 23

Station Type Date Time Source
KYKN TAF UTC NOAA

Error!

Example: see airport list